createdAt,value
2019-04-28T00:00:35.435Z,11.99
2019-04-28T00:01:35.418Z,11.88
2019-04-28T00:02:35.418Z,11.93
2019-04-28T00:03:35.404Z,11.91
2019-04-28T00:04:35.403Z,11.83
2019-04-28T00:05:35.399Z,11.88
2019-04-28T00:06:35.357Z,11.91
2019-04-28T00:07:35.374Z,11.89
2019-04-28T00:08:35.382Z,11.81
2019-04-28T00:09:35.343Z,11.86
2019-04-28T00:10:35.333Z,11.86
2019-04-28T00:11:35.307Z,11.85
2019-04-28T00:12:35.301Z,11.76
2019-04-28T00:13:35.292Z,11.74
2019-04-28T00:14:35.295Z,11.67
2019-04-28T00:15:35.274Z,11.67
2019-04-28T00:16:35.287Z,11.63
2019-04-28T00:17:35.376Z,11.70
2019-04-28T00:18:35.251Z,11.68
2019-04-28T00:19:35.251Z,11.70
2019-04-28T00:20:35.219Z,11.58
2019-04-28T00:21:35.199Z,11.65
2019-04-28T00:22:35.185Z,11.59
2019-04-28T00:23:35.197Z,11.62
2019-04-28T00:24:35.175Z,11.63
2019-04-28T00:25:35.198Z,11.59
2019-04-28T00:26:35.164Z,11.55
2019-04-28T00:27:35.142Z,11.63
2019-04-28T00:28:35.152Z,11.62
2019-04-28T00:29:40.352Z,11.70
2019-04-28T00:30:36.122Z,11.59
2019-04-28T00:31:35.099Z,11.52
2019-04-28T00:32:35.112Z,11.58
2019-04-28T00:33:35.088Z,11.51
2019-04-28T00:34:35.068Z,11.60
2019-04-28T00:35:35.329Z,11.40
2019-04-28T00:36:35.055Z,11.48
2019-04-28T00:37:35.063Z,11.49
2019-04-28T00:38:35.039Z,11.49
2019-04-28T00:39:35.171Z,11.45
2019-04-28T00:40:35.001Z,11.44
2019-04-28T00:41:34.995Z,11.45
2019-04-28T00:42:34.987Z,11.45
2019-04-28T00:43:34.975Z,11.48
2019-04-28T00:44:34.970Z,11.43
2019-04-28T00:45:34.956Z,11.45
2019-04-28T00:46:34.983Z,11.48
2019-04-28T00:47:34.930Z,11.41
2019-04-28T00:48:34.917Z,11.52
2019-04-28T00:49:34.923Z,11.41
2019-04-28T00:50:34.899Z,11.43
2019-04-28T00:51:34.886Z,11.44
2019-04-28T00:52:34.910Z,11.48
2019-04-28T00:53:34.878Z,11.45
2019-04-28T00:54:34.866Z,11.48
2019-04-28T00:55:34.866Z,11.44
2019-04-28T00:56:34.919Z,11.40
2019-04-28T00:57:34.878Z,11.40
2019-04-28T00:58:34.814Z,11.41
2019-04-28T00:59:34.794Z,11.49
2019-04-28T01:00:34.796Z,11.41
2019-04-28T01:01:34.776Z,11.51
2019-04-28T01:02:34.754Z,11.48
2019-04-28T01:03:34.777Z,11.43
2019-04-28T01:04:34.743Z,11.45
2019-04-28T01:05:34.733Z,11.48
2019-04-28T01:06:34.723Z,11.35
2019-04-28T01:07:34.720Z,11.35
2019-04-28T01:08:34.737Z,11.30
2019-04-28T01:09:34.685Z,11.34
2019-04-28T01:10:34.687Z,11.27
2019-04-28T01:11:34.673Z,11.23
2019-04-28T01:12:34.667Z,11.27
2019-04-28T01:13:34.652Z,11.38
2019-04-28T01:14:34.752Z,11.40
2019-04-28T01:15:34.624Z,11.23
2019-04-28T01:16:34.625Z,11.26
2019-04-28T01:17:34.613Z,11.27
2019-04-28T01:18:34.592Z,11.27
2019-04-28T01:19:34.595Z,11.22
2019-04-28T01:20:34.598Z,11.19
2019-04-28T01:21:34.574Z,11.19
2019-04-28T01:22:34.541Z,11.22
2019-04-28T01:23:34.534Z,11.19
2019-04-28T01:24:34.529Z,11.25
2019-04-28T01:25:34.528Z,11.30
2019-04-28T01:26:34.529Z,11.27
2019-04-28T01:27:34.500Z,11.30
2019-04-28T01:28:34.475Z,11.26
2019-04-28T01:29:34.496Z,11.33
2019-04-28T01:30:34.503Z,11.27
2019-04-28T01:31:34.476Z,11.25
2019-04-28T01:32:34.447Z,11.30
2019-04-28T01:33:34.442Z,11.37
2019-04-28T01:34:34.422Z,11.26
2019-04-28T01:35:34.413Z,11.25
2019-04-28T01:36:34.426Z,11.18
2019-04-28T01:37:34.388Z,11.20
2019-04-28T01:38:34.370Z,11.16
2019-04-28T01:39:34.389Z,11.07
2019-04-28T01:40:34.351Z,11.23
2019-04-28T01:41:34.350Z,11.19
2019-04-28T01:42:34.386Z,11.23
2019-04-28T01:43:34.353Z,11.25
2019-04-28T01:44:34.301Z,11.18
2019-04-28T01:45:34.346Z,11.26
2019-04-28T01:46:34.315Z,11.19
2019-04-28T01:47:34.271Z,11.22
2019-04-28T01:48:34.278Z,11.18
2019-04-28T01:49:34.253Z,11.15
2019-04-28T01:50:34.241Z,11.12
2019-04-28T01:51:34.243Z,11.10
2019-04-28T01:52:34.241Z,11.13
2019-04-28T01:53:34.215Z,11.15
2019-04-28T01:54:34.195Z,11.07
2019-04-28T01:55:34.227Z,11.12
2019-04-28T01:56:34.197Z,10.95
2019-04-28T01:57:34.174Z,10.95
2019-04-28T01:58:34.164Z,10.90
2019-04-28T01:59:34.150Z,10.95
2019-04-28T02:00:34.159Z,10.95
2019-04-28T02:01:34.142Z,10.95
2019-04-28T02:02:34.170Z,10.86
2019-04-28T02:03:34.138Z,10.79
2019-04-28T02:04:34.132Z,10.87
2019-04-28T02:05:34.108Z,10.80
2019-04-28T02:06:34.093Z,10.79
2019-04-28T02:07:34.054Z,10.80
2019-04-28T02:08:43.092Z,10.76
2019-04-28T02:09:34.041Z,10.76
2019-04-28T02:10:34.029Z,10.76
2019-04-28T02:11:34.017Z,10.79
2019-04-28T02:12:34.017Z,10.75
2019-04-28T02:13:34.056Z,10.64
2019-04-28T02:14:34.001Z,10.65
2019-04-28T02:15:33.975Z,10.64
2019-04-28T02:16:33.999Z,10.62
2019-04-28T02:17:33.969Z,10.62
2019-04-28T02:18:33.981Z,10.57
2019-04-28T02:19:33.940Z,10.61
2019-04-28T02:20:34.561Z,10.49
2019-04-28T02:21:33.901Z,10.49
2019-04-28T02:22:34.560Z,10.51
2019-04-28T02:23:33.905Z,10.51
2019-04-28T02:24:33.934Z,10.55
2019-04-28T02:25:33.890Z,10.49
2019-04-28T02:26:33.873Z,10.48
2019-04-28T02:27:34.530Z,10.36
2019-04-28T02:28:33.866Z,10.42
2019-04-28T02:29:33.915Z,10.45
2019-04-28T02:30:45.546Z,10.45
2019-04-28T02:31:34.850Z,10.38
2019-04-28T02:32:33.847Z,10.49
2019-04-28T02:33:33.845Z,10.48
2019-04-28T02:34:33.821Z,10.42
2019-04-28T02:35:34.361Z,10.45
2019-04-28T02:36:33.759Z,10.45
2019-04-28T02:37:33.760Z,10.46
2019-04-28T02:38:34.291Z,10.46
2019-04-28T02:39:33.736Z,10.51
2019-04-28T02:40:33.725Z,10.48
2019-04-28T02:41:33.949Z,10.55
2019-04-28T02:42:34.535Z,10.55
2019-04-28T02:43:33.698Z,10.49
2019-04-28T02:44:35.231Z,10.58
2019-04-28T02:45:33.693Z,10.57
2019-04-28T02:46:33.676Z,10.46
2019-04-28T02:47:34.125Z,10.55
2019-04-28T02:48:34.542Z,10.51
2019-04-28T02:49:33.767Z,10.49
2019-04-28T02:50:34.539Z,10.57
2019-04-28T02:51:33.636Z,10.48
2019-04-28T02:52:33.578Z,10.55
2019-04-28T02:53:33.949Z,10.46
2019-04-28T02:54:33.573Z,10.51
2019-04-28T02:55:33.557Z,10.34
2019-04-28T02:56:33.567Z,10.36
2019-04-28T02:57:33.521Z,10.38
2019-04-28T02:58:33.565Z,10.39
2019-04-28T02:59:33.603Z,10.38
2019-04-28T03:00:33.499Z,10.38
2019-04-28T03:01:33.511Z,10.25
2019-04-28T03:02:33.491Z,10.28
2019-04-28T03:03:34.127Z,10.28
2019-04-28T03:04:33.473Z,10.27
2019-04-28T03:05:33.837Z,10.27
2019-04-28T03:06:42.150Z,10.18
2019-04-28T03:07:33.467Z,10.31
2019-04-28T03:08:33.436Z,10.33
2019-04-28T03:09:33.407Z,10.27
2019-04-28T03:10:33.424Z,10.23
2019-04-28T03:11:33.421Z,10.25
2019-04-28T03:12:33.357Z,10.38
2019-04-28T03:13:33.361Z,10.41
2019-04-28T03:14:33.381Z,10.34
2019-04-28T03:15:33.373Z,10.42
2019-04-28T03:16:33.418Z,10.49
2019-04-28T03:17:33.468Z,10.49
2019-04-28T03:18:33.314Z,10.51
2019-04-28T03:19:34.148Z,10.51
2019-04-28T03:20:33.284Z,10.49
2019-04-28T03:21:33.286Z,10.48
2019-04-28T03:22:33.784Z,10.45
2019-04-28T03:23:33.253Z,10.42
2019-04-28T03:24:33.265Z,10.38
2019-04-28T03:25:33.467Z,10.41
2019-04-28T03:26:33.248Z,10.42
2019-04-28T03:27:33.202Z,10.36
2019-04-28T03:28:33.601Z,10.36
2019-04-28T03:29:33.193Z,10.38
2019-04-28T03:30:34.062Z,10.25
2019-04-28T03:32:01.181Z,10.24
2019-04-28T03:32:45.485Z,10.27
2019-04-28T03:33:41.156Z,10.24
2019-04-28T03:34:36.600Z,10.18
2019-04-28T03:35:33.117Z,10.15
2019-04-28T03:36:33.641Z,10.10
2019-04-28T03:37:33.121Z,9.99
2019-04-28T03:38:33.156Z,10.03
2019-04-28T03:39:33.121Z,9.99
2019-04-28T03:40:33.752Z,10.10
2019-04-28T03:41:33.123Z,10.07
2019-04-28T03:42:33.044Z,9.97
2019-04-28T03:43:33.034Z,10.00
2019-04-28T03:44:33.850Z,10.00
2019-04-28T03:45:33.032Z,10.00
2019-04-28T03:46:33.010Z,10.02
2019-04-28T03:47:33.045Z,10.05
2019-04-28T03:48:33.882Z,10.02
2019-04-28T03:49:33.051Z,9.85
2019-04-28T03:50:32.956Z,9.94
2019-04-28T03:51:32.954Z,9.91
2019-04-28T03:52:32.940Z,9.84
2019-04-28T03:53:32.925Z,9.91
2019-04-28T03:54:32.906Z,9.88
2019-04-28T03:55:34.947Z,9.95
2019-04-28T03:56:32.927Z,10.07
2019-04-28T03:57:32.884Z,10.06
2019-04-28T03:58:32.867Z,10.12
2019-04-28T03:59:32.869Z,10.07
2019-04-28T04:00:32.838Z,10.09
2019-04-28T04:01:32.845Z,10.02
2019-04-28T04:02:32.824Z,10.18
2019-04-28T04:03:32.829Z,10.07
2019-04-28T04:04:32.820Z,10.12
2019-04-28T04:05:32.826Z,10.02
2019-04-28T04:06:32.791Z,10.06
2019-04-28T04:07:32.805Z,9.94
2019-04-28T04:08:32.767Z,9.97
2019-04-28T04:09:32.762Z,9.84
2019-04-28T04:10:32.753Z,9.90
2019-04-28T04:11:32.747Z,10.03
2019-04-28T04:12:32.721Z,9.91
2019-04-28T04:13:33.142Z,10.02
2019-04-28T04:14:32.715Z,10.03
2019-04-28T04:15:32.709Z,9.94
2019-04-28T04:16:32.680Z,10.02
2019-04-28T04:17:33.643Z,9.95
2019-04-28T04:18:32.659Z,9.91
2019-04-28T04:19:32.643Z,9.88
2019-04-28T04:20:32.645Z,9.91
2019-04-28T04:21:32.645Z,9.94
2019-04-28T04:22:32.630Z,9.92
2019-04-28T04:23:32.604Z,9.94
2019-04-28T04:24:32.595Z,9.95
2019-04-28T04:25:32.573Z,10.02
2019-04-28T04:26:33.543Z,9.94
2019-04-28T04:27:32.557Z,10.00
2019-04-28T04:28:34.603Z,9.95
2019-04-28T04:29:32.611Z,9.91
2019-04-28T04:30:32.538Z,9.90
2019-04-28T04:31:32.523Z,9.91
2019-04-28T04:32:33.874Z,9.85
2019-04-28T04:33:32.499Z,9.90
2019-04-28T04:34:32.506Z,9.88
2019-04-28T04:35:32.501Z,9.94
2019-04-28T04:36:32.479Z,9.90
2019-04-28T04:37:32.497Z,9.97
2019-04-28T04:38:32.499Z,9.88
2019-04-28T04:39:32.478Z,9.88
2019-04-28T04:40:32.462Z,9.94
2019-04-28T04:41:33.131Z,9.87
2019-04-28T04:42:32.440Z,9.90
2019-04-28T04:43:32.502Z,9.85
2019-04-28T04:44:32.386Z,9.87
2019-04-28T04:45:32.397Z,9.84
2019-04-28T04:46:32.386Z,9.90
2019-04-28T04:47:32.972Z,9.94
2019-04-28T04:48:32.358Z,9.91
2019-04-28T04:49:32.364Z,9.90
2019-04-28T04:50:32.319Z,9.88
2019-04-28T04:51:32.335Z,9.91
2019-04-28T04:52:32.310Z,9.92
2019-04-28T04:53:32.331Z,9.90
2019-04-28T04:54:33.669Z,9.87
2019-04-28T04:55:32.273Z,9.77
2019-04-28T04:56:32.295Z,9.95
2019-04-28T04:57:32.707Z,9.87
2019-04-28T04:58:32.353Z,9.88
2019-04-28T04:59:32.280Z,9.87
2019-04-28T05:00:32.223Z,9.82
2019-04-28T05:01:32.234Z,9.82
2019-04-28T05:02:33.106Z,9.76
2019-04-28T05:03:33.098Z,9.81
2019-04-28T05:04:32.261Z,9.72
2019-04-28T05:05:32.190Z,9.67
2019-04-28T05:06:32.171Z,9.74
2019-04-28T05:07:32.178Z,9.70
2019-04-28T05:08:32.115Z,9.67
2019-04-28T05:09:32.146Z,9.74
2019-04-28T05:10:32.141Z,9.70
2019-04-28T05:11:32.152Z,9.69
2019-04-28T05:12:32.679Z,9.67
2019-04-28T05:13:32.079Z,9.69
2019-04-28T05:14:32.128Z,9.69
2019-04-28T05:15:32.067Z,9.67
2019-04-28T05:16:32.052Z,9.67
2019-04-28T05:17:32.112Z,9.70
2019-04-28T05:18:32.056Z,9.73
2019-04-28T05:19:32.048Z,9.72
2019-04-28T05:20:32.002Z,9.77
2019-04-28T05:21:33.480Z,9.74
2019-04-28T05:22:31.990Z,9.74
2019-04-28T05:23:31.974Z,9.81
2019-04-28T05:24:31.993Z,9.76
2019-04-28T05:25:32.614Z,9.80
2019-04-28T05:26:31.950Z,9.82
2019-04-28T05:27:32.512Z,9.80
2019-04-28T05:28:36.462Z,9.73
2019-04-28T05:29:31.927Z,9.73
2019-04-28T05:30:34.958Z,9.77
2019-04-28T05:31:32.912Z,9.88
2019-04-28T05:32:42.070Z,9.80
2019-04-28T05:33:34.046Z,9.88
2019-04-28T05:34:31.950Z,9.92
2019-04-28T05:35:31.863Z,9.85
2019-04-28T05:36:40.763Z,9.99
2019-04-28T05:37:32.855Z,9.91
2019-04-28T05:38:31.842Z,9.81
2019-04-28T05:39:31.824Z,9.85
2019-04-28T05:40:31.817Z,9.95
2019-04-28T05:41:31.802Z,9.91
2019-04-28T05:42:31.800Z,9.90
2019-04-28T05:43:31.811Z,9.99
2019-04-28T05:44:32.165Z,9.94
2019-04-28T05:45:32.322Z,9.94
2019-04-28T05:46:31.739Z,9.97
2019-04-28T05:47:31.735Z,9.88
2019-04-28T05:48:32.658Z,9.84
2019-04-28T05:49:31.814Z,9.87
2019-04-28T05:50:31.707Z,9.84
2019-04-28T05:51:32.612Z,9.87
2019-04-28T05:52:31.718Z,9.87
2019-04-28T05:53:31.655Z,9.97
2019-04-28T05:54:31.698Z,9.85
2019-04-28T05:55:31.662Z,9.88
2019-04-28T05:56:31.643Z,9.88
2019-04-28T05:57:31.614Z,9.85
2019-04-28T05:58:31.625Z,9.80
2019-04-28T05:59:31.618Z,9.72
2019-04-28T06:00:31.616Z,9.69
2019-04-28T06:01:31.641Z,9.76
2019-04-28T06:02:31.577Z,9.76
2019-04-28T06:03:31.575Z,9.76
2019-04-28T06:04:31.535Z,9.76
2019-04-28T06:05:31.897Z,9.81
2019-04-28T06:06:31.529Z,9.76
2019-04-28T06:07:31.515Z,9.82
2019-04-28T06:08:31.505Z,9.82
2019-04-28T06:09:31.537Z,9.82
2019-04-28T06:10:31.463Z,9.90
2019-04-28T06:11:31.459Z,9.88
2019-04-28T06:12:31.978Z,9.70
2019-04-28T06:13:32.108Z,9.70
2019-04-28T06:14:31.471Z,9.73
2019-04-28T06:15:31.440Z,9.76
2019-04-28T06:16:31.409Z,9.80
2019-04-28T06:17:31.399Z,9.82
2019-04-28T06:18:31.447Z,9.85
2019-04-28T06:19:31.397Z,9.88
2019-04-28T06:20:31.386Z,9.88
2019-04-28T06:21:31.364Z,9.92
2019-04-28T06:22:31.375Z,9.91
2019-04-28T06:23:31.393Z,9.92
2019-04-28T06:24:32.119Z,9.91
2019-04-28T06:25:31.336Z,9.90
2019-04-28T06:26:31.306Z,9.99
2019-04-28T06:27:32.752Z,10.06
2019-04-28T06:28:31.279Z,10.03
2019-04-28T06:29:31.280Z,10.13
2019-04-28T06:30:31.269Z,10.13
2019-04-28T06:31:31.237Z,10.27
2019-04-28T06:32:31.227Z,10.30
2019-04-28T06:33:31.210Z,10.18
2019-04-28T06:34:31.227Z,10.20
2019-04-28T06:35:31.192Z,10.20
2019-04-28T06:36:31.192Z,10.27
2019-04-28T06:37:31.175Z,10.30
2019-04-28T06:38:31.180Z,10.38
2019-04-28T06:39:31.164Z,10.58
2019-04-28T06:40:31.146Z,10.65
2019-04-28T06:41:31.165Z,10.65
2019-04-28T06:42:31.145Z,10.64
2019-04-28T06:43:31.109Z,10.75
2019-04-28T06:44:31.099Z,10.80
2019-04-28T06:45:31.092Z,10.77
2019-04-28T06:46:31.121Z,10.82
2019-04-28T06:47:31.127Z,10.82
2019-04-28T06:48:31.101Z,10.79
2019-04-28T06:49:31.085Z,10.94
2019-04-28T06:50:31.110Z,10.90
2019-04-28T06:51:31.052Z,10.82
2019-04-28T06:52:31.076Z,10.77
2019-04-28T06:53:31.052Z,10.89
2019-04-28T06:54:31.690Z,10.83
2019-04-28T06:55:30.978Z,10.82
2019-04-28T06:56:31.620Z,10.86
2019-04-28T06:57:31.006Z,10.89
2019-04-28T06:58:30.987Z,10.95
2019-04-28T06:59:31.008Z,10.95
2019-04-28T07:00:30.943Z,10.89
2019-04-28T07:01:31.046Z,10.82
2019-04-28T07:02:30.990Z,10.90
2019-04-28T07:03:30.926Z,10.94
2019-04-28T07:04:30.904Z,10.83
2019-04-28T07:05:30.907Z,10.80
2019-04-28T07:06:30.867Z,10.82
2019-04-28T07:07:30.870Z,10.89
2019-04-28T07:08:30.861Z,10.92
2019-04-28T07:09:30.927Z,10.82
2019-04-28T07:10:30.869Z,10.76
2019-04-28T07:11:30.851Z,10.83
2019-04-28T07:12:30.805Z,10.84
2019-04-28T07:13:30.810Z,10.84
2019-04-28T07:14:30.798Z,10.90
2019-04-28T07:15:30.848Z,10.92
2019-04-28T07:16:30.788Z,10.90
2019-04-28T07:17:30.750Z,11.07
2019-04-28T07:18:30.762Z,11.07
2019-04-28T07:19:33.393Z,11.15
2019-04-28T07:20:30.750Z,11.23
2019-04-28T07:21:30.729Z,11.22
2019-04-28T07:22:30.693Z,11.25
2019-04-28T07:23:30.684Z,11.05
2019-04-28T07:24:30.694Z,11.08
2019-04-28T07:25:30.682Z,11.22
2019-04-28T07:26:30.685Z,10.92
2019-04-28T07:27:30.697Z,11.04
2019-04-28T07:28:31.622Z,11.05
2019-04-28T07:29:31.623Z,11.10
2019-04-28T07:30:30.630Z,11.16
2019-04-28T07:31:39.224Z,11.23
2019-04-28T07:32:39.795Z,11.23
2019-04-28T07:33:39.792Z,11.23
2019-04-28T07:34:39.330Z,11.34
2019-04-28T07:35:38.890Z,11.20
2019-04-28T07:36:39.419Z,11.25
2019-04-28T07:37:40.984Z,11.16
2019-04-28T07:38:30.581Z,11.20
2019-04-28T07:39:39.985Z,11.01
2019-04-28T07:40:31.411Z,10.92
2019-04-28T07:41:30.509Z,10.98
2019-04-28T07:42:30.487Z,10.79
2019-04-28T07:43:30.465Z,10.86
2019-04-28T07:44:30.459Z,10.83
2019-04-28T07:45:30.472Z,10.76
2019-04-28T07:46:31.412Z,10.64
2019-04-28T07:47:30.440Z,10.65
2019-04-28T07:48:30.429Z,10.59
2019-04-28T07:49:30.403Z,10.59
2019-04-28T07:50:30.420Z,10.62
2019-04-28T07:51:30.383Z,10.65
2019-04-28T07:52:30.425Z,10.69
2019-04-28T07:53:30.405Z,10.67
2019-04-28T07:54:30.437Z,10.68
2019-04-28T07:55:30.606Z,10.75
2019-04-28T07:56:30.391Z,10.71
2019-04-28T07:57:30.350Z,10.77
2019-04-28T07:58:30.445Z,10.80
2019-04-28T07:59:30.304Z,10.83
2019-04-28T08:00:30.340Z,10.83
2019-04-28T08:01:30.303Z,10.77
2019-04-28T08:02:30.302Z,10.79
2019-04-28T08:03:30.256Z,10.84
2019-04-28T08:04:30.331Z,10.83
2019-04-28T08:05:30.313Z,10.79
2019-04-28T08:06:30.292Z,10.83
2019-04-28T08:07:30.223Z,10.84
2019-04-28T08:08:30.265Z,10.83
2019-04-28T08:09:30.211Z,10.89
2019-04-28T08:11:39.803Z,11.00
2019-04-28T08:12:39.807Z,10.86
2019-04-28T08:13:39.814Z,10.83
2019-04-28T08:14:39.795Z,10.75
2019-04-28T08:15:39.786Z,10.84
2019-04-28T08:16:39.764Z,10.75
2019-04-28T08:17:39.759Z,10.83
2019-04-28T08:18:39.735Z,10.92
2019-04-28T08:19:39.746Z,10.90
2019-04-28T08:20:39.756Z,10.97
2019-04-28T08:21:39.717Z,11.01
2019-04-28T08:22:39.700Z,10.90
2019-04-28T08:23:47.010Z,10.92
2019-04-28T08:24:40.664Z,10.97
2019-04-28T08:25:39.671Z,11.00
2019-04-28T08:26:39.654Z,11.13
2019-04-28T08:27:39.668Z,11.31
2019-04-28T08:28:39.656Z,11.35
2019-04-28T08:29:39.644Z,11.44
2019-04-28T08:30:39.625Z,11.59
2019-04-28T08:31:39.643Z,11.65
2019-04-28T08:32:39.577Z,11.81
2019-04-28T08:33:39.576Z,11.85
2019-04-28T08:34:39.589Z,11.81
2019-04-28T08:35:39.559Z,11.85
2019-04-28T08:36:39.548Z,11.86
2019-04-28T08:37:39.554Z,11.88
2019-04-28T08:38:39.525Z,11.89
2019-04-28T08:39:39.518Z,11.78
2019-04-28T08:40:39.506Z,11.65
2019-04-28T08:41:39.495Z,11.68
2019-04-28T08:42:39.599Z,11.71
2019-04-28T08:43:39.489Z,11.74
2019-04-28T08:44:39.463Z,11.73
2019-04-28T08:45:39.455Z,11.70
2019-04-28T08:46:39.435Z,11.71
2019-04-28T08:47:39.433Z,11.67
2019-04-28T08:48:39.431Z,11.63
2019-04-28T08:49:39.406Z,11.60
2019-04-28T08:50:39.391Z,11.63
2019-04-28T08:51:39.396Z,11.73
2019-04-28T08:52:39.392Z,11.73
2019-04-28T08:53:39.420Z,11.71
2019-04-28T08:54:39.369Z,11.76
2019-04-28T08:55:39.425Z,11.99
2019-04-28T08:56:39.360Z,12.00
2019-04-28T08:57:39.463Z,12.17
2019-04-28T08:58:39.327Z,12.29
2019-04-28T08:59:39.296Z,12.37
2019-04-28T09:00:39.361Z,12.48
2019-04-28T09:01:39.268Z,12.54
2019-04-28T09:02:39.305Z,12.72
2019-04-28T09:03:39.340Z,12.65
2019-04-28T09:04:39.304Z,12.70
2019-04-28T09:05:39.757Z,12.73
2019-04-28T09:06:39.231Z,12.68
2019-04-28T09:07:39.224Z,12.61
2019-04-28T09:08:39.221Z,12.58
2019-04-28T09:09:39.205Z,12.63
2019-04-28T09:10:39.173Z,12.70
2019-04-28T09:11:39.172Z,12.86
2019-04-28T09:12:39.158Z,12.80
2019-04-28T09:13:39.152Z,12.94
2019-04-28T09:14:39.167Z,12.90
2019-04-28T09:15:39.125Z,12.91
2019-04-28T09:16:39.125Z,12.99
2019-04-28T09:17:39.103Z,13.09
2019-04-28T09:18:39.092Z,13.01
2019-04-28T09:19:39.146Z,12.95
2019-04-28T09:20:39.151Z,13.01
2019-04-28T09:21:39.617Z,13.21
2019-04-28T09:22:39.045Z,13.39
2019-04-28T09:23:39.041Z,13.58
2019-04-28T09:24:39.050Z,13.68
2019-04-28T09:25:39.025Z,13.54
2019-04-28T09:26:39.043Z,13.50
2019-04-28T09:27:39.002Z,13.62
2019-04-28T09:28:39.007Z,13.76
2019-04-28T09:29:38.978Z,13.89
2019-04-28T09:30:38.981Z,13.95
2019-04-28T09:31:38.958Z,13.97
2019-04-28T09:32:38.959Z,14.15
2019-04-28T09:33:38.928Z,14.30
2019-04-28T09:34:39.040Z,14.33
2019-04-28T09:35:38.916Z,14.49
2019-04-28T09:36:38.915Z,14.34
2019-04-28T09:37:38.883Z,14.15
2019-04-28T09:38:38.892Z,14.04
2019-04-28T09:39:38.867Z,14.01
2019-04-28T09:40:38.866Z,13.94
2019-04-28T09:41:38.859Z,13.83
2019-04-28T09:42:38.835Z,13.80
2019-04-28T09:43:38.831Z,13.76
2019-04-28T09:44:38.839Z,13.70
2019-04-28T09:45:38.800Z,13.64
2019-04-28T09:46:38.808Z,13.52
2019-04-28T09:47:38.799Z,13.57
2019-04-28T09:48:38.765Z,13.70
2019-04-28T09:49:38.762Z,13.70
2019-04-28T09:50:38.745Z,13.73
2019-04-28T09:51:38.755Z,13.85
2019-04-28T09:52:38.803Z,13.94
2019-04-28T09:53:38.730Z,14.03
2019-04-28T09:54:38.744Z,14.12
2019-04-28T09:55:38.706Z,14.00
2019-04-28T09:56:38.694Z,14.07
2019-04-28T09:57:38.687Z,14.12
2019-04-28T09:58:38.701Z,14.03
2019-04-28T09:59:38.662Z,14.00
2019-04-28T10:00:38.638Z,13.79
2019-04-28T10:01:38.622Z,13.65
2019-04-28T10:02:38.618Z,13.61
2019-04-28T10:03:38.647Z,13.67
2019-04-28T10:04:41.660Z,13.79
2019-04-28T10:05:38.610Z,14.00
2019-04-28T10:06:38.573Z,14.08
2019-04-28T10:07:38.563Z,14.08
2019-04-28T10:08:38.568Z,14.25
2019-04-28T10:09:38.550Z,14.22
2019-04-28T10:10:38.535Z,14.23
2019-04-28T10:11:38.527Z,14.19
2019-04-28T10:12:38.533Z,14.25
2019-04-28T10:13:38.527Z,14.12
2019-04-28T10:14:38.483Z,13.97
2019-04-28T10:15:38.480Z,13.76
2019-04-28T10:16:38.476Z,13.60
2019-04-28T10:17:38.476Z,13.52
2019-04-28T10:18:38.487Z,13.28
2019-04-28T10:19:38.425Z,13.20
2019-04-28T10:20:38.437Z,13.13
2019-04-28T10:21:38.411Z,13.13
2019-04-28T10:22:38.414Z,13.11
2019-04-28T10:23:38.388Z,13.19
2019-04-28T10:24:38.411Z,13.20
2019-04-28T10:25:38.400Z,13.16
2019-04-28T10:26:38.358Z,13.11
2019-04-28T10:27:38.352Z,13.01
2019-04-28T10:28:38.357Z,13.08
2019-04-28T10:29:38.367Z,13.05
2019-04-28T10:30:38.311Z,13.05
2019-04-28T10:31:38.337Z,13.17
2019-04-28T10:32:38.306Z,13.23
2019-04-28T10:33:38.284Z,13.23
2019-04-28T10:34:38.275Z,13.21
2019-04-28T10:35:38.279Z,13.20
2019-04-28T10:36:38.327Z,13.19
2019-04-28T10:37:38.251Z,13.20
2019-04-28T10:38:38.226Z,13.21
2019-04-28T10:39:38.243Z,13.33
2019-04-28T10:40:38.220Z,13.36
2019-04-28T10:41:38.214Z,13.45
2019-04-28T10:42:38.200Z,13.33
2019-04-28T10:43:38.177Z,13.46
2019-04-28T10:44:38.152Z,13.30
2019-04-28T10:45:38.174Z,13.43
2019-04-28T10:46:38.155Z,13.49
2019-04-28T10:47:38.151Z,13.50
2019-04-28T10:48:38.112Z,13.43
2019-04-28T10:49:38.131Z,13.43
2019-04-28T10:50:38.116Z,13.37
2019-04-28T10:51:38.111Z,13.36
2019-04-28T10:52:38.116Z,13.33
2019-04-28T10:53:38.095Z,13.40
2019-04-28T10:54:38.107Z,13.30
2019-04-28T10:55:38.065Z,13.30
2019-04-28T10:56:38.042Z,13.28
2019-04-28T10:57:38.036Z,13.33
2019-04-28T10:58:38.037Z,13.36
2019-04-28T10:59:38.020Z,13.40
2019-04-28T11:00:38.031Z,13.55
2019-04-28T11:01:37.976Z,13.68
2019-04-28T11:02:37.979Z,13.67
2019-04-28T11:03:37.962Z,13.79
2019-04-28T11:04:37.993Z,13.89
2019-04-28T11:05:37.983Z,14.01
2019-04-28T11:06:38.856Z,13.85
2019-04-28T11:07:37.960Z,13.78
2019-04-28T11:08:37.933Z,13.82
2019-04-28T11:09:37.944Z,13.79
2019-04-28T11:10:39.124Z,13.83
2019-04-28T11:11:37.888Z,13.71
2019-04-28T11:12:37.865Z,13.91
2019-04-28T11:13:37.864Z,14.31
2019-04-28T11:14:37.867Z,14.18
2019-04-28T11:15:37.890Z,14.00
2019-04-28T11:16:37.952Z,13.80
2019-04-28T11:17:37.844Z,13.68
2019-04-28T11:18:37.791Z,13.61
2019-04-28T11:19:37.787Z,13.55
2019-04-28T11:20:39.656Z,13.86
2019-04-28T11:21:37.816Z,14.00
2019-04-28T11:22:37.772Z,14.15
2019-04-28T11:23:37.997Z,14.31
2019-04-28T11:24:37.739Z,14.22
2019-04-28T11:25:37.728Z,14.03
2019-04-28T11:26:37.731Z,13.97
2019-04-28T11:27:37.723Z,13.94
2019-04-28T11:28:38.824Z,14.04
2019-04-28T11:29:37.685Z,14.15
2019-04-28T11:30:37.670Z,14.26
2019-04-28T11:31:37.680Z,14.40
2019-04-28T11:32:37.675Z,14.56
2019-04-28T11:33:37.691Z,14.85
2019-04-28T11:34:37.806Z,14.89
2019-04-28T11:35:37.626Z,14.86
2019-04-28T11:36:37.629Z,14.86
2019-04-28T11:37:37.608Z,14.62
2019-04-28T11:38:37.716Z,14.56
2019-04-28T11:39:37.592Z,14.40
2019-04-28T11:40:37.577Z,14.26
2019-04-28T11:41:37.620Z,14.07
2019-04-28T11:42:37.547Z,13.89
2019-04-28T11:43:37.537Z,13.70
2019-04-28T11:44:37.546Z,13.73
2019-04-28T11:45:37.529Z,13.80
2019-04-28T11:46:37.683Z,13.80
2019-04-28T11:47:37.500Z,13.83
2019-04-28T11:48:37.483Z,13.98
2019-04-28T11:49:37.481Z,13.93
2019-04-28T11:50:37.463Z,13.95
2019-04-28T11:51:37.879Z,14.12
2019-04-28T11:52:38.532Z,14.12
2019-04-28T11:53:37.478Z,14.31
2019-04-28T11:54:37.428Z,14.36
2019-04-28T11:55:37.430Z,14.37
2019-04-28T11:56:41.482Z,14.45
2019-04-28T11:57:37.409Z,14.49
2019-04-28T11:58:37.378Z,14.52
2019-04-28T11:59:37.401Z,14.58
2019-04-28T12:00:37.413Z,14.45
2019-04-28T12:01:37.444Z,14.52
2019-04-28T12:02:37.337Z,14.45
2019-04-28T12:03:37.341Z,14.44
2019-04-28T12:04:37.331Z,14.48
2019-04-28T12:05:38.495Z,14.41
2019-04-28T12:06:37.298Z,14.28
2019-04-28T12:07:37.270Z,14.20
2019-04-28T12:08:37.302Z,14.19
2019-04-28T12:09:37.261Z,14.34
2019-04-28T12:10:37.236Z,14.31
2019-04-28T12:11:37.227Z,14.41
2019-04-28T12:12:37.369Z,14.37
2019-04-28T12:13:37.221Z,14.51
2019-04-28T12:14:37.231Z,14.66
2019-04-28T12:15:37.200Z,14.71
2019-04-28T12:16:37.182Z,14.74
2019-04-28T12:17:37.365Z,14.77
2019-04-28T12:18:37.332Z,14.74
2019-04-28T12:19:37.169Z,14.70
2019-04-28T12:20:37.161Z,14.71
2019-04-28T12:21:37.128Z,14.58
2019-04-28T12:22:37.116Z,14.51
2019-04-28T12:23:37.127Z,14.34
2019-04-28T12:24:37.144Z,14.30
2019-04-28T12:25:37.071Z,14.18
2019-04-28T12:26:37.099Z,14.08
2019-04-28T12:27:37.071Z,14.07
2019-04-28T12:28:37.067Z,14.12
2019-04-28T12:29:37.083Z,14.04
2019-04-28T12:30:37.058Z,14.04
2019-04-28T12:31:37.031Z,13.89
2019-04-28T12:32:37.016Z,13.85
2019-04-28T12:33:37.005Z,13.91
2019-04-28T12:34:36.984Z,13.91
2019-04-28T12:35:47.008Z,13.85
2019-04-28T12:36:37.989Z,13.79
2019-04-28T12:37:36.944Z,13.98
2019-04-28T12:38:36.948Z,14.07
2019-04-28T12:39:37.004Z,14.19
2019-04-28T12:40:36.923Z,14.28
2019-04-28T12:41:36.954Z,14.44
2019-04-28T12:42:37.179Z,14.40
2019-04-28T12:43:36.888Z,14.38
2019-04-28T12:44:36.880Z,14.59
2019-04-28T12:45:37.261Z,14.59
2019-04-28T12:46:36.865Z,14.67
2019-04-28T12:47:36.850Z,14.79
2019-04-28T12:48:36.843Z,14.62
2019-04-28T12:49:36.825Z,14.62
2019-04-28T12:50:36.817Z,14.58
2019-04-28T12:51:36.818Z,14.59
2019-04-28T12:52:36.825Z,14.45
2019-04-28T12:53:36.777Z,14.49
2019-04-28T12:54:36.806Z,14.43
2019-04-28T12:55:36.800Z,14.44
2019-04-28T12:56:36.757Z,14.38
2019-04-28T12:57:36.809Z,14.33
2019-04-28T12:58:36.775Z,14.31